Terminal Aerodrome Forecast
Issued by NWS

Home | Current Version | Previous Version | Graphics & Text | Print | Product List | Glossary On
Versions: 1 2 3 4 5 6 7 8 9 10 11 12 13 14 15 16 17 18 19 20 21
000
FTUS43 KGRB 201100
TAFCWA
TAF
KCWA 201131Z 2012/2112 29014KT P6SM SCT020 SCT035
      TEMPO 2013/2015 -SHSN BKN035
     FM201500 29012G20KT P6SM SCT035 BKN040
     FM202300 29008KT P6SM FEW050
     FM210300 28004KT P6SM SKC=

USA.gov is the U.S. government's official web portal to all federal, state and local government web resources and services.